sensor_id;sensor_type;location;lat;lon;timestamp;P1;durP1;ratioP1;P2;durP2;ratioP2
10088;SDS011;51898;49.864;8.550;2023-07-09T00:01:02;7.73;;;5.00;;
10088;SDS011;51898;49.864;8.550;2023-07-09T00:04:04;7.63;;;5.20;;
10088;SDS011;51898;49.864;8.550;2023-07-09T00:07:11;8.10;;;5.47;;
10088;SDS011;51898;49.864;8.550;2023-07-09T00:10:20;6.17;;;5.33;;
10088;SDS011;51898;49.864;8.550;2023-07-09T00:13:23;7.07;;;5.27;;
10088;SDS011;51898;49.864;8.550;2023-07-09T00:16:26;7.53;;;6.13;;
10088;SDS011;51898;49.864;8.550;2023-07-09T00:19:28;8.30;;;5.57;;
10088;SDS011;51898;49.864;8.550;2023-07-09T00:22:30;13.20;;;6.27;;
10088;SDS011;51898;49.864;8.550;2023-07-09T00:25:32;10.67;;;6.27;;
10088;SDS011;51898;49.864;8.550;2023-07-09T00:28:37;7.23;;;5.93;;
10088;SDS011;51898;49.864;8.550;2023-07-09T00:31:39;10.53;;;5.60;;
10088;SDS011;51898;49.864;8.550;2023-07-09T00:34:46;8.33;;;5.83;;
10088;SDS011;51898;49.864;8.550;2023-07-09T00:37:51;7.50;;;5.53;;
10088;SDS011;51898;49.864;8.550;2023-07-09T00:41:00;6.43;;;5.63;;
10088;SDS011;51898;49.864;8.550;2023-07-09T00:44:20;6.33;;;5.50;;
10088;SDS011;51898;49.864;8.550;2023-07-09T00:53:43;11.27;;;6.00;;
10088;SDS011;51898;49.864;8.550;2023-07-09T00:56:47;8.10;;;5.23;;
10088;SDS011;51898;49.864;8.550;2023-07-09T00:59:54;7.63;;;5.10;;
10088;SDS011;51898;49.864;8.550;2023-07-09T01:03:21;9.23;;;5.40;;
10088;SDS011;51898;49.864;8.550;2023-07-09T01:06:30;9.83;;;6.27;;
10088;SDS011;51898;49.864;8.550;2023-07-09T01:09:37;7.50;;;6.20;;
10088;SDS011;51898;49.864;8.550;2023-07-09T01:12:43;8.43;;;6.07;;
10088;SDS011;51898;49.864;8.550;2023-07-09T01:15:46;8.53;;;6.13;;
10088;SDS011;51898;49.864;8.550;2023-07-09T01:18:48;8.37;;;5.50;;
10088;SDS011;51898;49.864;8.550;2023-07-09T01:21:54;10.67;;;5.03;;
10088;SDS011;51898;49.864;8.550;2023-07-09T01:25:04;5.60;;;5.10;;
10088;SDS011;51898;49.864;8.550;2023-07-09T01:28:07;7.10;;;4.97;;
10088;SDS011;51898;49.864;8.550;2023-07-09T01:31:10;9.27;;;6.13;;
10088;SDS011;51898;49.864;8.550;2023-07-09T01:34:14;9.87;;;5.93;;
10088;SDS011;51898;49.864;8.550;2023-07-09T01:37:17;6.70;;;5.20;;
10088;SDS011;51898;49.864;8.550;2023-07-09T01:40:23;7.37;;;6.27;;
10088;SDS011;51898;49.864;8.550;2023-07-09T01:43:33;7.00;;;5.40;;
10088;SDS011;51898;49.864;8.550;2023-07-09T01:46:35;8.37;;;5.60;;
10088;SDS011;51898;49.864;8.550;2023-07-09T01:49:37;7.50;;;5.97;;
10088;SDS011;51898;49.864;8.550;2023-07-09T01:52:40;9.60;;;7.40;;
10088;SDS011;51898;49.864;8.550;2023-07-09T01:55:44;9.13;;;6.90;;
10088;SDS011;51898;49.864;8.550;2023-07-09T01:58:46;8.77;;;6.93;;
10088;SDS011;51898;49.864;8.550;2023-07-09T02:01:49;9.43;;;6.87;;
10088;SDS011;51898;49.864;8.550;2023-07-09T02:04:55;7.77;;;6.27;;
10088;SDS011;51898;49.864;8.550;2023-07-09T02:07:57;7.37;;;6.50;;
10088;SDS011;51898;49.864;8.550;2023-07-09T02:10:59;8.43;;;5.70;;
10088;SDS011;51898;49.864;8.550;2023-07-09T02:14:01;11.27;;;6.57;;
10088;SDS011;51898;49.864;8.550;2023-07-09T02:17:03;8.53;;;6.40;;
10088;SDS011;51898;49.864;8.550;2023-07-09T02:20:06;10.57;;;6.53;;
10088;SDS011;51898;49.864;8.550;2023-07-09T02:23:08;11.50;;;6.80;;
10088;SDS011;51898;49.864;8.550;2023-07-09T02:26:10;7.00;;;6.30;;
10088;SDS011;51898;49.864;8.550;2023-07-09T02:29:12;9.57;;;7.00;;
10088;SDS011;51898;49.864;8.550;2023-07-09T02:32:16;8.97;;;7.37;;
10088;SDS011;51898;49.864;8.550;2023-07-09T02:35:21;10.60;;;7.50;;
10088;SDS011;51898;49.864;8.550;2023-07-09T02:38:23;8.67;;;6.90;;
10088;SDS011;51898;49.864;8.550;2023-07-09T02:41:25;8.17;;;6.60;;
10088;SDS011;51898;49.864;8.550;2023-07-09T02:44:26;8.77;;;6.40;;
10088;SDS011;51898;49.864;8.550;2023-07-09T02:47:28;11.00;;;7.13;;
10088;SDS011;51898;49.864;8.550;2023-07-09T02:50:30;7.73;;;6.50;;
10088;SDS011;51898;49.864;8.550;2023-07-09T02:53:31;9.30;;;6.43;;
10088;SDS011;51898;49.864;8.550;2023-07-09T02:56:33;9.30;;;6.67;;
10088;SDS011;51898;49.864;8.550;2023-07-09T02:59:35;10.40;;;5.73;;
10088;SDS011;51898;49.864;8.550;2023-07-09T03:02:36;8.27;;;6.40;;
10088;SDS011;51898;49.864;8.550;2023-07-09T03:05:38;7.43;;;5.47;;
10088;SDS011;51898;49.864;8.550;2023-07-09T03:08:41;6.80;;;5.97;;
10088;SDS011;51898;49.864;8.550;2023-07-09T03:11:42;12.40;;;6.33;;
10088;SDS011;51898;49.864;8.550;2023-07-09T03:14:47;6.83;;;5.37;;
10088;SDS011;51898;49.864;8.550;2023-07-09T03:17:49;8.53;;;5.73;;
10088;SDS011;51898;49.864;8.550;2023-07-09T03:20:51;7.90;;;5.07;;
10088;SDS011;51898;49.864;8.550;2023-07-09T03:23:53;8.47;;;5.40;;
10088;SDS011;51898;49.864;8.550;2023-07-09T03:26:56;6.73;;;5.10;;
10088;SDS011;51898;49.864;8.550;2023-07-09T03:29:58;7.80;;;5.20;;
10088;SDS011;51898;49.864;8.550;2023-07-09T03:33:01;6.00;;;4.40;;
10088;SDS011;51898;49.864;8.550;2023-07-09T03:36:05;6.43;;;5.20;;
10088;SDS011;51898;49.864;8.550;2023-07-09T03:39:07;8.57;;;5.10;;
10088;SDS011;51898;49.864;8.550;2023-07-09T03:42:08;8.40;;;5.37;;
10088;SDS011;51898;49.864;8.550;2023-07-09T03:45:13;6.77;;;5.77;;
10088;SDS011;51898;49.864;8.550;2023-07-09T03:48:15;7.50;;;5.00;;
10088;SDS011;51898;49.864;8.550;2023-07-09T03:51:18;6.43;;;5.07;;
10088;SDS011;51898;49.864;8.550;2023-07-09T03:54:20;7.90;;;5.30;;
10088;SDS011;51898;49.864;8.550;2023-07-09T03:57:22;10.30;;;5.73;;
10088;SDS011;51898;49.864;8.550;2023-07-09T04:00:23;8.50;;;5.90;;
10088;SDS011;51898;49.864;8.550;2023-07-09T04:03:28;9.40;;;6.37;;
10088;SDS011;51898;49.864;8.550;2023-07-09T04:06:29;9.40;;;6.37;;
10088;SDS011;51898;49.864;8.550;2023-07-09T04:09:31;13.23;;;6.53;;
10088;SDS011;51898;49.864;8.550;2023-07-09T04:12:33;8.50;;;6.50;;
10088;SDS011;51898;49.864;8.550;2023-07-09T04:15:43;7.30;;;6.20;;
10088;SDS011;51898;49.864;8.550;2023-07-09T04:18:45;6.10;;;5.50;;
10088;SDS011;51898;49.864;8.550;2023-07-09T04:21:47;6.93;;;6.23;;
10088;SDS011;51898;49.864;8.550;2023-07-09T04:24:48;9.07;;;6.43;;
10088;SDS011;51898;49.864;8.550;2023-07-09T04:27:50;8.33;;;6.70;;
10088;SDS011;51898;49.864;8.550;2023-07-09T04:30:52;10.00;;;6.63;;
10088;SDS011;51898;49.864;8.550;2023-07-09T04:33:54;9.30;;;7.17;;
10088;SDS011;51898;49.864;8.550;2023-07-09T04:36:56;10.17;;;7.00;;
10088;SDS011;51898;49.864;8.550;2023-07-09T04:39:57;9.40;;;7.23;;
10088;SDS011;51898;49.864;8.550;2023-07-09T04:42:59;9.53;;;6.80;;
10088;SDS011;51898;49.864;8.550;2023-07-09T04:46:01;9.00;;;8.00;;
10088;SDS011;51898;49.864;8.550;2023-07-09T04:49:03;10.53;;;7.73;;
10088;SDS011;51898;49.864;8.550;2023-07-09T04:52:05;11.80;;;8.27;;
10088;SDS011;51898;49.864;8.550;2023-07-09T04:55:07;14.00;;;9.27;;
10088;SDS011;51898;49.864;8.550;2023-07-09T04:58:10;11.27;;;8.60;;
10088;SDS011;51898;49.864;8.550;2023-07-09T05:01:11;8.67;;;7.77;;
10088;SDS011;51898;49.864;8.550;2023-07-09T05:04:13;10.90;;;7.97;;
10088;SDS011;51898;49.864;8.550;2023-07-09T05:07:15;9.67;;;8.20;;
10088;SDS011;51898;49.864;8.550;2023-07-09T05:10:16;13.50;;;8.90;;
10088;SDS011;51898;49.864;8.550;2023-07-09T05:13:18;14.87;;;8.97;;
10088;SDS011;51898;49.864;8.550;2023-07-09T05:16:20;10.47;;;8.90;;
10088;SDS011;51898;49.864;8.550;2023-07-09T05:19:22;11.57;;;8.07;;
10088;SDS011;51898;49.864;8.550;2023-07-09T05:22:23;9.90;;;8.50;;
10088;SDS011;51898;49.864;8.550;2023-07-09T05:25:25;13.53;;;8.00;;
10088;SDS011;51898;49.864;8.550;2023-07-09T05:28:27;11.27;;;8.90;;
10088;SDS011;51898;49.864;8.550;2023-07-09T05:31:30;11.10;;;8.40;;
10088;SDS011;51898;49.864;8.550;2023-07-09T05:34:33;17.07;;;8.17;;
10088;SDS011;51898;49.864;8.550;2023-07-09T05:37:35;12.43;;;9.70;;
10088;SDS011;51898;49.864;8.550;2023-07-09T05:40:37;14.83;;;8.90;;
10088;SDS011;51898;49.864;8.550;2023-07-09T05:43:39;11.93;;;9.40;;
10088;SDS011;51898;49.864;8.550;2023-07-09T05:46:41;10.17;;;9.10;;
10088;SDS011;51898;49.864;8.550;2023-07-09T05:49:42;14.87;;;9.73;;
10088;SDS011;51898;49.864;8.550;2023-07-09T05:52:44;10.57;;;9.47;;
10088;SDS011;51898;49.864;8.550;2023-07-09T05:55:46;13.50;;;8.90;;
10088;SDS011;51898;49.864;8.550;2023-07-09T05:58:51;10.37;;;8.67;;
10088;SDS011;51898;49.864;8.550;2023-07-09T06:01:53;11.20;;;8.73;;
10088;SDS011;51898;49.864;8.550;2023-07-09T06:04:55;11.40;;;9.17;;
10088;SDS011;51898;49.864;8.550;2023-07-09T06:07:59;14.03;;;8.73;;
10088;SDS011;51898;49.864;8.550;2023-07-09T06:11:02;11.63;;;8.23;;
10088;SDS011;51898;49.864;8.550;2023-07-09T06:14:04;8.67;;;7.73;;
10088;SDS011;51898;49.864;8.550;2023-07-09T06:17:06;8.30;;;7.47;;
10088;SDS011;51898;49.864;8.550;2023-07-09T06:20:08;11.03;;;8.13;;
10088;SDS011;51898;49.864;8.550;2023-07-09T06:23:10;9.67;;;8.30;;
10088;SDS011;51898;49.864;8.550;2023-07-09T06:26:13;12.10;;;8.23;;
10088;SDS011;51898;49.864;8.550;2023-07-09T06:29:15;12.63;;;7.80;;
10088;SDS011;51898;49.864;8.550;2023-07-09T06:32:17;8.13;;;7.20;;
10088;SDS011;51898;49.864;8.550;2023-07-09T06:35:20;9.37;;;7.30;;
10088;SDS011;51898;49.864;8.550;2023-07-09T06:38:22;9.27;;;7.40;;
10088;SDS011;51898;49.864;8.550;2023-07-09T06:41:23;8.90;;;7.13;;
10088;SDS011;51898;49.864;8.550;2023-07-09T06:44:25;10.70;;;7.23;;
10088;SDS011;51898;49.864;8.550;2023-07-09T06:47:27;8.40;;;7.50;;
10088;SDS011;51898;49.864;8.550;2023-07-09T06:50:32;9.33;;;7.10;;
10088;SDS011;51898;49.864;8.550;2023-07-09T06:53:35;7.30;;;6.60;;
10088;SDS011;51898;49.864;8.550;2023-07-09T06:56:37;8.00;;;7.20;;
10088;SDS011;51898;49.864;8.550;2023-07-09T06:59:39;9.40;;;7.03;;
10088;SDS011;51898;49.864;8.550;2023-07-09T07:02:41;15.57;;;7.83;;
10088;SDS011;51898;49.864;8.550;2023-07-09T07:05:46;10.33;;;7.83;;
10088;SDS011;51898;49.864;8.550;2023-07-09T07:08:54;10.40;;;7.90;;
10088;SDS011;51898;49.864;8.550;2023-07-09T07:11:56;11.53;;;8.13;;
10088;SDS011;51898;49.864;8.550;2023-07-09T07:14:57;9.40;;;7.40;;
10088;SDS011;51898;49.864;8.550;2023-07-09T07:17:59;9.57;;;7.50;;
10088;SDS011;51898;49.864;8.550;2023-07-09T07:21:01;9.80;;;7.53;;
10088;SDS011;51898;49.864;8.550;2023-07-09T07:24:03;8.73;;;7.50;;
10088;SDS011;51898;49.864;8.550;2023-07-09T07:27:05;9.53;;;8.40;;
10088;SDS011;51898;49.864;8.550;2023-07-09T07:30:08;9.43;;;7.67;;
10088;SDS011;51898;49.864;8.550;2023-07-09T07:33:10;9.90;;;7.30;;
10088;SDS011;51898;49.864;8.550;2023-07-09T07:36:14;8.00;;;6.97;;
10088;SDS011;51898;49.864;8.550;2023-07-09T07:39:19;9.43;;;7.30;;
10088;SDS011;51898;49.864;8.550;2023-07-09T07:42:21;8.80;;;7.47;;
10088;SDS011;51898;49.864;8.550;2023-07-09T07:45:22;10.37;;;7.00;;
10088;SDS011;51898;49.864;8.550;2023-07-09T07:48:24;9.10;;;7.20;;
10088;SDS011;51898;49.864;8.550;2023-07-09T07:51:26;12.83;;;7.30;;
10088;SDS011;51898;49.864;8.550;2023-07-09T07:54:29;12.10;;;7.63;;
10088;SDS011;51898;49.864;8.550;2023-07-09T07:57:32;7.40;;;6.60;;
10088;SDS011;51898;49.864;8.550;2023-07-09T08:00:34;8.43;;;7.03;;
10088;SDS011;51898;49.864;8.550;2023-07-09T08:03:36;10.00;;;7.60;;
10088;SDS011;51898;49.864;8.550;2023-07-09T08:06:37;8.40;;;7.50;;
10088;SDS011;51898;49.864;8.550;2023-07-09T08:09:39;8.67;;;7.30;;
10088;SDS011;51898;49.864;8.550;2023-07-09T08:12:41;10.97;;;8.07;;
10088;SDS011;51898;49.864;8.550;2023-07-09T08:15:43;9.47;;;7.83;;
10088;SDS011;51898;49.864;8.550;2023-07-09T08:18:46;7.73;;;6.97;;
10088;SDS011;51898;49.864;8.550;2023-07-09T08:21:48;8.10;;;7.30;;
10088;SDS011;51898;49.864;8.550;2023-07-09T08:24:49;9.63;;;7.67;;
10088;SDS011;51898;49.864;8.550;2023-07-09T08:27:52;9.40;;;7.37;;
10088;SDS011;51898;49.864;8.550;2023-07-09T08:30:54;8.27;;;7.47;;
10088;SDS011;51898;49.864;8.550;2023-07-09T08:33:56;11.18;;;8.65;;
10088;SDS011;51898;49.864;8.550;2023-07-09T08:36:58;8.55;;;7.75;;
10088;SDS011;51898;49.864;8.550;2023-07-09T08:40:00;10.23;;;7.38;;
10088;SDS011;51898;49.864;8.550;2023-07-09T08:43:04;9.73;;;7.90;;
10088;SDS011;51898;49.864;8.550;2023-07-09T08:46:16;8.90;;;7.40;;
10088;SDS011;51898;49.864;8.550;2023-07-09T08:49:33;9.35;;;7.88;;
10088;SDS011;51898;49.864;8.550;2023-07-09T08:52:44;9.23;;;7.63;;
10088;SDS011;51898;49.864;8.550;2023-07-09T08:55:50;9.20;;;7.43;;
10088;SDS011;51898;49.864;8.550;2023-07-09T08:58:53;8.38;;;7.47;;
10088;SDS011;51898;49.864;8.550;2023-07-09T09:01:57;10.35;;;7.50;;
10088;SDS011;51898;49.864;8.550;2023-07-09T09:05:03;8.65;;;7.75;;
10088;SDS011;51898;49.864;8.550;2023-07-09T09:08:17;8.55;;;7.68;;
10088;SDS011;51898;49.864;8.550;2023-07-09T09:11:41;8.70;;;7.80;;
10088;SDS011;51898;49.864;8.550;2023-07-09T09:14:53;8.57;;;7.88;;
10088;SDS011;51898;49.864;8.550;2023-07-09T09:18:01;8.50;;;7.65;;
10088;SDS011;51898;49.864;8.550;2023-07-09T09:21:34;8.02;;;7.00;;
10088;SDS011;51898;49.864;8.550;2023-07-09T09:24:51;9.40;;;7.82;;
10088;SDS011;51898;49.864;8.550;2023-07-09T09:28:07;8.70;;;7.43;;
10088;SDS011;51898;49.864;8.550;2023-07-09T09:31:12;10.65;;;8.35;;
10088;SDS011;51898;49.864;8.550;2023-07-09T09:34:25;7.97;;;7.18;;
10088;SDS011;51898;49.864;8.550;2023-07-09T09:37:30;8.90;;;8.00;;
10088;SDS011;51898;49.864;8.550;2023-07-09T09:40:34;7.72;;;7.03;;
10088;SDS011;51898;49.864;8.550;2023-07-09T09:43:37;10.05;;;7.55;;
10088;SDS011;51898;49.864;8.550;2023-07-09T09:46:42;8.18;;;6.93;;
10088;SDS011;51898;49.864;8.550;2023-07-09T09:49:44;8.90;;;7.20;;
10088;SDS011;51898;49.864;8.550;2023-07-09T09:52:46;8.27;;;7.57;;
10088;SDS011;51898;49.864;8.550;2023-07-09T09:55:50;7.93;;;7.10;;
10088;SDS011;51898;49.864;8.550;2023-07-09T09:58:55;8.77;;;6.90;;
10088;SDS011;51898;49.864;8.550;2023-07-09T10:01:58;10.00;;;7.72;;
10088;SDS011;51898;49.864;8.550;2023-07-09T10:05:04;8.10;;;7.30;;
10088;SDS011;51898;49.864;8.550;2023-07-09T10:14:56;9.18;;;8.23;;
10088;SDS011;51898;49.864;8.550;2023-07-09T10:18:13;9.23;;;7.88;;
10088;SDS011;51898;49.864;8.550;2023-07-09T10:21:31;7.65;;;6.72;;
10088;SDS011;51898;49.864;8.550;2023-07-09T10:34:25;11.32;;;8.02;;
10088;SDS011;51898;49.864;8.550;2023-07-09T10:37:35;8.10;;;6.78;;
10088;SDS011;51898;49.864;8.550;2023-07-09T10:40:45;10.23;;;8.07;;
10088;SDS011;51898;49.864;8.550;2023-07-09T10:43:51;7.00;;;6.10;;
10088;SDS011;51898;49.864;8.550;2023-07-09T10:47:02;7.68;;;6.85;;
10088;SDS011;51898;49.864;8.550;2023-07-09T10:50:19;8.73;;;7.10;;
10088;SDS011;51898;49.864;8.550;2023-07-09T10:56:38;8.70;;;5.90;;
10088;SDS011;51898;49.864;8.550;2023-07-09T10:59:41;7.13;;;6.43;;
10088;SDS011;51898;49.864;8.550;2023-07-09T11:02:44;8.00;;;7.13;;
10088;SDS011;51898;49.864;8.550;2023-07-09T11:05:48;7.43;;;6.72;;
10088;SDS011;51898;49.864;8.550;2023-07-09T11:08:51;8.30;;;6.68;;
10088;SDS011;51898;49.864;8.550;2023-07-09T11:11:55;7.72;;;6.80;;
10088;SDS011;51898;49.864;8.550;2023-07-09T11:15:03;8.05;;;7.32;;
10088;SDS011;51898;49.864;8.550;2023-07-09T11:18:19;8.90;;;7.38;;
10088;SDS011;51898;49.864;8.550;2023-07-09T11:21:23;7.60;;;6.97;;
10088;SDS011;51898;49.864;8.550;2023-07-09T11:24:32;7.80;;;7.10;;
10088;SDS011;51898;49.864;8.550;2023-07-09T11:31:14;7.70;;;7.03;;
10088;SDS011;51898;49.864;8.550;2023-07-09T11:34:35;8.40;;;6.80;;
10088;SDS011;51898;49.864;8.550;2023-07-09T11:37:49;8.40;;;6.55;;
10088;SDS011;51898;49.864;8.550;2023-07-09T11:40:52;6.38;;;5.88;;
10088;SDS011;51898;49.864;8.550;2023-07-09T11:44:10;10.43;;;6.35;;
10088;SDS011;51898;49.864;8.550;2023-07-09T11:50:29;6.75;;;6.10;;
10088;SDS011;51898;49.864;8.550;2023-07-09T11:53:34;6.72;;;6.03;;
10088;SDS011;51898;49.864;8.550;2023-07-09T11:56:55;6.68;;;6.18;;
10088;SDS011;51898;49.864;8.550;2023-07-09T11:59:59;7.28;;;6.57;;
10088;SDS011;51898;49.864;8.550;2023-07-09T12:03:01;7.13;;;5.88;;
10088;SDS011;51898;49.864;8.550;2023-07-09T12:06:05;8.38;;;6.25;;
10088;SDS011;51898;49.864;8.550;2023-07-09T12:09:18;7.47;;;6.75;;
10088;SDS011;51898;49.864;8.550;2023-07-09T12:12:25;6.53;;;5.93;;
10088;SDS011;51898;49.864;8.550;2023-07-09T12:15:28;6.57;;;6.03;;
10088;SDS011;51898;49.864;8.550;2023-07-09T12:18:32;8.38;;;6.28;;
10088;SDS011;51898;49.864;8.550;2023-07-09T12:21:37;6.80;;;6.20;;
10088;SDS011;51898;49.864;8.550;2023-07-09T12:24:41;8.07;;;6.78;;
10088;SDS011;51898;49.864;8.550;2023-07-09T12:27:45;7.10;;;6.38;;
10088;SDS011;51898;49.864;8.550;2023-07-09T12:30:48;8.05;;;6.65;;
10088;SDS011;51898;49.864;8.550;2023-07-09T12:33:54;6.90;;;6.20;;
10088;SDS011;51898;49.864;8.550;2023-07-09T12:36:58;6.38;;;5.88;;
10088;SDS011;51898;49.864;8.550;2023-07-09T12:40:01;7.18;;;6.55;;
10088;SDS011;51898;49.864;8.550;2023-07-09T12:43:03;7.55;;;6.43;;
10088;SDS011;51898;49.864;8.550;2023-07-09T12:46:05;7.00;;;6.38;;
10088;SDS011;51898;49.864;8.550;2023-07-09T12:49:07;7.38;;;6.32;;
10088;SDS011;51898;49.864;8.550;2023-07-09T12:52:12;6.32;;;5.82;;
10088;SDS011;51898;49.864;8.550;2023-07-09T12:55:18;7.32;;;6.55;;
10088;SDS011;51898;49.864;8.550;2023-07-09T12:58:25;5.85;;;5.40;;
10088;SDS011;51898;49.864;8.550;2023-07-09T13:01:31;7.45;;;6.75;;
10088;SDS011;51898;49.864;8.550;2023-07-09T13:04:37;7.50;;;6.78;;
10088;SDS011;51898;49.864;8.550;2023-07-09T13:07:39;8.90;;;7.55;;
10088;SDS011;51898;49.864;8.550;2023-07-09T13:10:42;7.13;;;6.53;;
10088;SDS011;51898;49.864;8.550;2023-07-09T13:13:54;7.05;;;6.47;;
10088;SDS011;51898;49.864;8.550;2023-07-09T13:17:07;6.35;;;5.75;;
10088;SDS011;51898;49.864;8.550;2023-07-09T13:20:10;6.60;;;6.03;;
10088;SDS011;51898;49.864;8.550;2023-07-09T13:23:17;6.40;;;5.90;;
10088;SDS011;51898;49.864;8.550;2023-07-09T13:26:29;7.20;;;6.28;;
10088;SDS011;51898;49.864;8.550;2023-07-09T13:29:31;9.68;;;6.28;;
10088;SDS011;51898;49.864;8.550;2023-07-09T13:32:34;6.18;;;5.57;;
10088;SDS011;51898;49.864;8.550;2023-07-09T13:35:36;6.80;;;6.30;;
10088;SDS011;51898;49.864;8.550;2023-07-09T13:38:38;7.05;;;5.63;;
10088;SDS011;51898;49.864;8.550;2023-07-09T13:41:42;7.53;;;5.63;;
10088;SDS011;51898;49.864;8.550;2023-07-09T13:44:47;6.53;;;5.93;;
10088;SDS011;51898;49.864;8.550;2023-07-09T13:47:51;6.30;;;5.70;;
10088;SDS011;51898;49.864;8.550;2023-07-09T13:50:53;6.78;;;6.25;;
10088;SDS011;51898;49.864;8.550;2023-07-09T13:53:56;6.97;;;6.28;;
10088;SDS011;51898;49.864;8.550;2023-07-09T13:56:58;9.60;;;6.38;;
10088;SDS011;51898;49.864;8.550;2023-07-09T14:00:00;7.15;;;6.03;;
10088;SDS011;51898;49.864;8.550;2023-07-09T14:03:02;6.57;;;5.85;;
10088;SDS011;51898;49.864;8.550;2023-07-09T14:06:04;5.90;;;5.32;;
10088;SDS011;51898;49.864;8.550;2023-07-09T14:09:08;5.97;;;5.35;;
10088;SDS011;51898;49.864;8.550;2023-07-09T14:12:13;7.13;;;5.50;;
10088;SDS011;51898;49.864;8.550;2023-07-09T14:15:17;8.93;;;6.65;;
10088;SDS011;51898;49.864;8.550;2023-07-09T14:18:21;8.25;;;6.47;;
10088;SDS011;51898;49.864;8.550;2023-07-09T14:21:24;8.85;;;5.78;;
10088;SDS011;51898;49.864;8.550;2023-07-09T14:24:30;7.28;;;6.57;;
10088;SDS011;51898;49.864;8.550;2023-07-09T14:27:32;7.93;;;6.90;;
10088;SDS011;51898;49.864;8.550;2023-07-09T14:30:34;7.72;;;6.45;;
10088;SDS011;51898;49.864;8.550;2023-07-09T14:33:36;8.77;;;6.13;;
10088;SDS011;51898;49.864;8.550;2023-07-09T14:36:37;6.65;;;6.05;;
10088;SDS011;51898;49.864;8.550;2023-07-09T14:39:39;5.70;;;5.20;;
10088;SDS011;51898;49.864;8.550;2023-07-09T14:42:41;6.80;;;6.15;;
10088;SDS011;51898;49.864;8.550;2023-07-09T14:45:43;6.35;;;5.75;;
10088;SDS011;51898;49.864;8.550;2023-07-09T14:48:45;7.57;;;5.68;;
10088;SDS011;51898;49.864;8.550;2023-07-09T14:51:47;6.90;;;5.75;;
10088;SDS011;51898;49.864;8.550;2023-07-09T14:54:51;9.32;;;6.03;;
10088;SDS011;51898;49.864;8.550;2023-07-09T14:57:52;6.85;;;5.63;;
10088;SDS011;51898;49.864;8.550;2023-07-09T15:00:54;6.85;;;6.15;;
10088;SDS011;51898;49.864;8.550;2023-07-09T15:03:56;6.40;;;5.80;;
10088;SDS011;51898;49.864;8.550;2023-07-09T15:06:57;6.38;;;5.78;;
10088;SDS011;51898;49.864;8.550;2023-07-09T15:10:00;7.88;;;6.70;;
10088;SDS011;51898;49.864;8.550;2023-07-09T15:13:02;6.65;;;5.95;;
10088;SDS011;51898;49.864;8.550;2023-07-09T15:16:05;6.22;;;5.68;;
10088;SDS011;51898;49.864;8.550;2023-07-09T15:19:14;8.80;;;5.68;;
10088;SDS011;51898;49.864;8.550;2023-07-09T15:22:27;6.63;;;6.03;;
10088;SDS011;51898;49.864;8.550;2023-07-09T15:25:32;7.32;;;6.05;;
10088;SDS011;51898;49.864;8.550;2023-07-09T15:28:34;6.38;;;5.78;;
10088;SDS011;51898;49.864;8.550;2023-07-09T15:31:36;8.80;;;6.70;;
10088;SDS011;51898;49.864;8.550;2023-07-09T15:34:37;10.20;;;6.10;;
10088;SDS011;51898;49.864;8.550;2023-07-09T15:37:39;6.88;;;6.28;;
10088;SDS011;51898;49.864;8.550;2023-07-09T15:40:41;6.88;;;5.80;;
10088;SDS011;51898;49.864;8.550;2023-07-09T15:43:43;7.35;;;6.53;;
10088;SDS011;51898;49.864;8.550;2023-07-09T15:46:52;6.57;;;6.03;;
10088;SDS011;51898;49.864;8.550;2023-07-09T15:49:57;6.85;;;6.25;;
10088;SDS011;51898;49.864;8.550;2023-07-09T15:52:59;7.72;;;6.30;;
10088;SDS011;51898;49.864;8.550;2023-07-09T15:56:44;6.43;;;5.82;;
10088;SDS011;51898;49.864;8.550;2023-07-09T15:59:29;9.10;;;5.80;;
10088;SDS011;51898;49.864;8.550;2023-07-09T16:02:33;6.28;;;5.78;;
10088;SDS011;51898;49.864;8.550;2023-07-09T16:05:35;6.18;;;5.45;;
10088;SDS011;51898;49.864;8.550;2023-07-09T16:08:38;6.88;;;5.90;;
10088;SDS011;51898;49.864;8.550;2023-07-09T16:11:41;7.78;;;5.97;;
10088;SDS011;51898;49.864;8.550;2023-07-09T16:14:46;8.45;;;5.45;;
10088;SDS011;51898;49.864;8.550;2023-07-09T16:17:48;6.30;;;5.70;;
10088;SDS011;51898;49.864;8.550;2023-07-09T16:20:50;6.03;;;5.50;;
10088;SDS011;51898;49.864;8.550;2023-07-09T16:23:53;6.78;;;6.10;;
10088;SDS011;51898;49.864;8.550;2023-07-09T16:26:57;6.20;;;5.35;;
10088;SDS011;51898;49.864;8.550;2023-07-09T16:30:01;5.97;;;5.43;;
10088;SDS011;51898;49.864;8.550;2023-07-09T16:33:03;6.85;;;6.15;;
10088;SDS011;51898;49.864;8.550;2023-07-09T16:36:07;6.40;;;5.78;;
10088;SDS011;51898;49.864;8.550;2023-07-09T16:42:29;6.78;;;5.93;;
10088;SDS011;51898;49.864;8.550;2023-07-09T16:45:31;6.47;;;5.97;;
10088;SDS011;51898;49.864;8.550;2023-07-09T16:48:33;6.93;;;6.22;;
10088;SDS011;51898;49.864;8.550;2023-07-09T16:51:34;6.47;;;5.97;;
10088;SDS011;51898;49.864;8.550;2023-07-09T16:54:36;7.07;;;6.10;;
10088;SDS011;51898;49.864;8.550;2023-07-09T16:57:38;7.47;;;5.70;;
10088;SDS011;51898;49.864;8.550;2023-07-09T17:00:40;8.43;;;5.65;;
10088;SDS011;51898;49.864;8.550;2023-07-09T17:03:41;18.70;;;6.43;;
10088;SDS011;51898;49.864;8.550;2023-07-09T17:06:43;6.65;;;5.72;;
10088;SDS011;51898;49.864;8.550;2023-07-09T17:09:45;9.23;;;6.28;;
10088;SDS011;51898;49.864;8.550;2023-07-09T17:12:51;7.30;;;6.30;;
10088;SDS011;51898;49.864;8.550;2023-07-09T17:15:57;7.35;;;6.63;;
10088;SDS011;51898;49.864;8.550;2023-07-09T17:18:59;7.07;;;5.60;;
10088;SDS011;51898;49.864;8.550;2023-07-09T17:22:00;9.07;;;6.20;;
10088;SDS011;51898;49.864;8.550;2023-07-09T17:25:11;5.95;;;5.45;;
10088;SDS011;51898;49.864;8.550;2023-07-09T17:28:50;9.85;;;6.20;;
10088;SDS011;51898;49.864;8.550;2023-07-09T17:31:52;6.97;;;5.78;;
10088;SDS011;51898;49.864;8.550;2023-07-09T17:34:53;9.55;;;6.38;;
10088;SDS011;51898;49.864;8.550;2023-07-09T17:37:55;8.43;;;6.00;;
10088;SDS011;51898;49.864;8.550;2023-07-09T17:40:57;7.20;;;6.50;;
10088;SDS011;51898;49.864;8.550;2023-07-09T17:43:59;7.97;;;6.72;;
10088;SDS011;51898;49.864;8.550;2023-07-09T17:47:01;11.63;;;7.07;;
10088;SDS011;51898;49.864;8.550;2023-07-09T17:50:04;17.08;;;7.38;;
10088;SDS011;51898;49.864;8.550;2023-07-09T17:53:17;8.43;;;6.68;;
10088;SDS011;51898;49.864;8.550;2023-07-09T17:56:22;9.77;;;6.80;;
10088;SDS011;51898;49.864;8.550;2023-07-09T17:59:26;7.57;;;6.97;;
10088;SDS011;51898;49.864;8.550;2023-07-09T18:02:36;7.82;;;6.22;;
10088;SDS011;51898;49.864;8.550;2023-07-09T18:05:41;7.30;;;6.60;;
10088;SDS011;51898;49.864;8.550;2023-07-09T18:08:43;7.70;;;6.30;;
10088;SDS011;51898;49.864;8.550;2023-07-09T18:11:45;7.70;;;6.25;;
10088;SDS011;51898;49.864;8.550;2023-07-09T18:14:51;7.63;;;6.82;;
10088;SDS011;51898;49.864;8.550;2023-07-09T18:17:55;9.27;;;6.63;;
10088;SDS011;51898;49.864;8.550;2023-07-09T18:20:57;7.43;;;6.13;;
10088;SDS011;51898;49.864;8.550;2023-07-09T18:23:59;7.25;;;6.57;;
10088;SDS011;51898;49.864;8.550;2023-07-09T18:27:05;10.98;;;6.50;;
10088;SDS011;51898;49.864;8.550;2023-07-09T18:33:21;12.00;;;6.60;;
10088;SDS011;51898;49.864;8.550;2023-07-09T18:36:22;12.57;;;6.00;;
10088;SDS011;51898;49.864;8.550;2023-07-09T18:39:24;9.20;;;6.45;;
10088;SDS011;51898;49.864;8.550;2023-07-09T18:42:26;14.82;;;7.10;;
10088;SDS011;51898;49.864;8.550;2023-07-09T18:45:28;11.48;;;6.70;;
10088;SDS011;51898;49.864;8.550;2023-07-09T18:48:30;11.23;;;6.65;;
10088;SDS011;51898;49.864;8.550;2023-07-09T18:51:31;7.85;;;6.10;;
10088;SDS011;51898;49.864;8.550;2023-07-09T18:54:33;7.55;;;6.22;;
10088;SDS011;51898;49.864;8.550;2023-07-09T18:57:35;10.45;;;6.35;;
10088;SDS011;51898;49.864;8.550;2023-07-09T19:00:37;8.55;;;5.85;;
10088;SDS011;51898;49.864;8.550;2023-07-09T19:03:39;7.60;;;6.30;;
10088;SDS011;51898;49.864;8.550;2023-07-09T19:06:41;11.75;;;6.40;;